sensor_id;sensor_type;location;lat;lon;timestamp;pressure;altitude;pressure_sealevel;temperature
70668;BMP280;58242;51.250;-1.118;2024-03-08T00:00:12;99990.31;;;11.27
70668;BMP280;58242;51.250;-1.118;2024-03-08T00:02:38;99990.16;;;11.24
70668;BMP280;58242;51.250;-1.118;2024-03-08T00:05:07;99988.94;;;11.21
70668;BMP280;58242;51.250;-1.118;2024-03-08T00:07:39;99986.94;;;11.18
70668;BMP280;58242;51.250;-1.118;2024-03-08T00:10:07;99986.81;;;11.15
70668;BMP280;58242;51.250;-1.118;2024-03-08T00:12:36;99986.34;;;11.13
70668;BMP280;58242;51.250;-1.118;2024-03-08T00:15:02;99984.31;;;11.10
70668;BMP280;58242;51.250;-1.118;2024-03-08T00:17:27;99985.78;;;11.08
70668;BMP280;58242;51.250;-1.118;2024-03-08T00:19:52;99974.91;;;11.04
70668;BMP280;58242;51.250;-1.118;2024-03-08T00:22:18;99969.13;;;11.02
70668;BMP280;58242;51.250;-1.118;2024-03-08T00:24:43;99961.78;;;10.99
70668;BMP280;58242;51.250;-1.118;2024-03-08T00:27:09;99959.41;;;10.98
70668;BMP280;58242;51.250;-1.118;2024-03-08T00:29:35;99970.47;;;10.96
70668;BMP280;58242;51.250;-1.118;2024-03-08T00:32:00;99959.28;;;10.94
70668;BMP280;58242;51.250;-1.118;2024-03-08T00:34:26;99963.72;;;10.91
70668;BMP280;58242;51.250;-1.118;2024-03-08T00:36:51;99956.81;;;10.90
70668;BMP280;58242;51.250;-1.118;2024-03-08T00:39:18;99953.69;;;10.88
70668;BMP280;58242;51.250;-1.118;2024-03-08T00:41:45;99958.56;;;10.86
70668;BMP280;58242;51.250;-1.118;2024-03-08T00:44:10;99956.56;;;10.83
70668;BMP280;58242;51.250;-1.118;2024-03-08T00:46:36;99960.34;;;10.82
70668;BMP280;58242;51.250;-1.118;2024-03-08T00:49:01;99956.56;;;10.83
70668;BMP280;58242;51.250;-1.118;2024-03-08T00:51:26;99952.78;;;10.84
70668;BMP280;58242;51.250;-1.118;2024-03-08T00:53:52;99949.31;;;10.83
70668;BMP280;58242;51.250;-1.118;2024-03-08T00:56:17;99948.34;;;10.88
70668;BMP280;58242;51.250;-1.118;2024-03-08T00:58:42;99951.16;;;10.91
70668;BMP280;58242;51.250;-1.118;2024-03-08T01:01:08;99950.16;;;10.95
70668;BMP280;58242;51.250;-1.118;2024-03-08T01:03:35;99942.69;;;11.01
70668;BMP280;58242;51.250;-1.118;2024-03-08T01:06:00;99946.09;;;11.10
70668;BMP280;58242;51.250;-1.118;2024-03-08T01:08:27;99940.19;;;11.16
70668;BMP280;58242;51.250;-1.118;2024-03-08T01:10:53;99934.75;;;11.24
70668;BMP280;58242;51.250;-1.118;2024-03-08T01:13:18;99927.78;;;11.31
70668;BMP280;58242;51.250;-1.118;2024-03-08T01:15:45;99924.25;;;11.39
70668;BMP280;58242;51.250;-1.118;2024-03-08T01:18:11;99921.03;;;11.46
70668;BMP280;58242;51.250;-1.118;2024-03-08T01:20:36;99908.56;;;11.49
70668;BMP280;58242;51.250;-1.118;2024-03-08T01:23:02;99910.88;;;11.51
70668;BMP280;58242;51.250;-1.118;2024-03-08T01:25:27;99901.28;;;11.50
70668;BMP280;58242;51.250;-1.118;2024-03-08T01:27:52;99901.63;;;11.48
70668;BMP280;58242;51.250;-1.118;2024-03-08T01:30:19;99905.88;;;11.49
70668;BMP280;58242;51.250;-1.118;2024-03-08T01:32:44;99902.84;;;11.51
70668;BMP280;58242;51.250;-1.118;2024-03-08T01:35:09;99900.28;;;11.54
70668;BMP280;58242;51.250;-1.118;2024-03-08T01:37:35;99893.16;;;11.58
70668;BMP280;58242;51.250;-1.118;2024-03-08T01:40:01;99885.25;;;11.62
70668;BMP280;58242;51.250;-1.118;2024-03-08T01:42:26;99888.50;;;11.67
70668;BMP280;58242;51.250;-1.118;2024-03-08T01:44:51;99874.09;;;11.71
70668;BMP280;58242;51.250;-1.118;2024-03-08T01:47:17;99864.28;;;11.75
70668;BMP280;58242;51.250;-1.118;2024-03-08T01:49:43;99856.00;;;11.80
70668;BMP280;58242;51.250;-1.118;2024-03-08T01:52:09;99855.78;;;11.85
70668;BMP280;58242;51.250;-1.118;2024-03-08T01:54:35;99859.34;;;11.89
70668;BMP280;58242;51.250;-1.118;2024-03-08T01:57:01;99851.09;;;11.94
70668;BMP280;58242;51.250;-1.118;2024-03-08T01:59:26;99851.22;;;11.97
70668;BMP280;58242;51.250;-1.118;2024-03-08T02:01:55;99841.03;;;12.02
70668;BMP280;58242;51.250;-1.118;2024-03-08T02:04:20;99841.91;;;12.06
70668;BMP280;58242;51.250;-1.118;2024-03-08T02:06:46;99844.72;;;12.10
70668;BMP280;58242;51.250;-1.118;2024-03-08T02:09:13;99836.00;;;12.13
70668;BMP280;58242;51.250;-1.118;2024-03-08T02:11:40;99817.34;;;12.16
70668;BMP280;58242;51.250;-1.118;2024-03-08T02:14:06;99820.44;;;12.18
70668;BMP280;58242;51.250;-1.118;2024-03-08T02:16:31;99815.09;;;12.18
70668;BMP280;58242;51.250;-1.118;2024-03-08T02:18:57;99812.78;;;12.16
70668;BMP280;58242;51.250;-1.118;2024-03-08T02:21:23;99808.53;;;12.15
70668;BMP280;58242;51.250;-1.118;2024-03-08T02:23:49;99794.34;;;12.15
70668;BMP280;58242;51.250;-1.118;2024-03-08T02:26:17;99794.34;;;12.15
70668;BMP280;58242;51.250;-1.118;2024-03-08T02:28:43;99789.31;;;12.13
70668;BMP280;58242;51.250;-1.118;2024-03-08T02:31:09;99777.84;;;12.13
70668;BMP280;58242;51.250;-1.118;2024-03-08T02:33:35;99771.69;;;12.13
70668;BMP280;58242;51.250;-1.118;2024-03-08T02:36:00;99773.91;;;12.11
70668;BMP280;58242;51.250;-1.118;2024-03-08T02:38:26;99765.78;;;12.07
70668;BMP280;58242;51.250;-1.118;2024-03-08T02:40:52;99755.75;;;12.04
70668;BMP280;58242;51.250;-1.118;2024-03-08T02:43:18;99751.09;;;12.01
70668;BMP280;58242;51.250;-1.118;2024-03-08T02:45:44;99749.41;;;11.97
70668;BMP280;58242;51.250;-1.118;2024-03-08T02:48:11;99744.28;;;11.92
70668;BMP280;58242;51.250;-1.118;2024-03-08T02:50:37;99746.88;;;11.89
70668;BMP280;58242;51.250;-1.118;2024-03-08T02:53:03;99749.78;;;11.84
70668;BMP280;58242;51.250;-1.118;2024-03-08T02:55:29;99745.09;;;11.81
70668;BMP280;58242;51.250;-1.118;2024-03-08T02:57:55;99738.84;;;11.77
70668;BMP280;58242;51.250;-1.118;2024-03-08T03:00:20;99749.16;;;11.75
70668;BMP280;58242;51.250;-1.118;2024-03-08T03:02:49;99742.53;;;11.73
70668;BMP280;58242;51.250;-1.118;2024-03-08T03:05:19;99737.56;;;11.71
70668;BMP280;58242;51.250;-1.118;2024-03-08T03:07:45;99735.19;;;11.70
70668;BMP280;58242;51.250;-1.118;2024-03-08T03:10:10;99736.31;;;11.69
70668;BMP280;58242;51.250;-1.118;2024-03-08T03:12:37;99731.63;;;11.66
70668;BMP280;58242;51.250;-1.118;2024-03-08T03:15:03;99719.72;;;11.63
70668;BMP280;58242;51.250;-1.118;2024-03-08T03:17:29;99723.19;;;11.64
70668;BMP280;58242;51.250;-1.118;2024-03-08T03:19:55;99717.81;;;11.64
70668;BMP280;58242;51.250;-1.118;2024-03-08T03:22:21;99716.25;;;11.63
70668;BMP280;58242;51.250;-1.118;2024-03-08T03:24:46;99715.16;;;11.64
70668;BMP280;58242;51.250;-1.118;2024-03-08T03:27:12;99712.78;;;11.63
70668;BMP280;58242;51.250;-1.118;2024-03-08T03:29:39;99705.88;;;11.62
70668;BMP280;58242;51.250;-1.118;2024-03-08T03:32:05;99712.38;;;11.61
70668;BMP280;58242;51.250;-1.118;2024-03-08T03:34:33;99703.56;;;11.60
70668;BMP280;58242;51.250;-1.118;2024-03-08T03:37:01;99707.34;;;11.59
70668;BMP280;58242;51.250;-1.118;2024-03-08T03:39:28;99708.91;;;11.60
70668;BMP280;58242;51.250;-1.118;2024-03-08T03:41:56;99700.09;;;11.60
70668;BMP280;58242;51.250;-1.118;2024-03-08T03:44:21;99694.75;;;11.60
70668;BMP280;58242;51.250;-1.118;2024-03-08T03:46:48;99686.25;;;11.58
70668;BMP280;58242;51.250;-1.118;2024-03-08T03:49:16;99690.81;;;11.57
70668;BMP280;58242;51.250;-1.118;2024-03-08T03:51:41;99681.91;;;11.53
70668;BMP280;58242;51.250;-1.118;2024-03-08T03:54:06;99676.44;;;11.50
70668;BMP280;58242;51.250;-1.118;2024-03-08T03:56:32;99677.13;;;11.47
70668;BMP280;58242;51.250;-1.118;2024-03-08T03:58:58;99668.22;;;11.43
70668;BMP280;58242;51.250;-1.118;2024-03-08T04:01:23;99667.78;;;11.41
70668;BMP280;58242;51.250;-1.118;2024-03-08T04:03:49;99667.34;;;11.39
70668;BMP280;58242;51.250;-1.118;2024-03-08T04:06:14;99658.09;;;11.37
70668;BMP280;58242;51.250;-1.118;2024-03-08T04:08:40;99668.00;;;11.36
70668;BMP280;58242;51.250;-1.118;2024-03-08T04:11:06;99657.53;;;11.31
70668;BMP280;58242;51.250;-1.118;2024-03-08T04:13:32;99663.56;;;11.28
70668;BMP280;58242;51.250;-1.118;2024-03-08T04:15:58;99657.97;;;11.22
70668;BMP280;58242;51.250;-1.118;2024-03-08T04:18:23;99651.75;;;11.18
70668;BMP280;58242;51.250;-1.118;2024-03-08T04:20:48;99656.41;;;11.09
70668;BMP280;58242;51.250;-1.118;2024-03-08T04:23:15;99655.00;;;11.00
70668;BMP280;58242;51.250;-1.118;2024-03-08T04:25:41;99650.84;;;10.91
70668;BMP280;58242;51.250;-1.118;2024-03-08T04:28:08;99637.94;;;10.81
70668;BMP280;58242;51.250;-1.118;2024-03-08T04:30:37;99638.84;;;10.73
70668;BMP280;58242;51.250;-1.118;2024-03-08T04:33:02;99636.28;;;10.65
70668;BMP280;58242;51.250;-1.118;2024-03-08T04:35:28;99623.78;;;10.57
70668;BMP280;58242;51.250;-1.118;2024-03-08T04:37:54;99620.13;;;10.50
70668;BMP280;58242;51.250;-1.118;2024-03-08T04:40:19;99612.97;;;10.42
70668;BMP280;58242;51.250;-1.118;2024-03-08T04:42:44;99613.84;;;10.34
70668;BMP280;58242;51.250;-1.118;2024-03-08T04:45:10;99621.63;;;10.27
70668;BMP280;58242;51.250;-1.118;2024-03-08T04:47:39;99616.06;;;10.21
70668;BMP280;58242;51.250;-1.118;2024-03-08T04:50:05;99619.25;;;10.14
70668;BMP280;58242;51.250;-1.118;2024-03-08T04:52:30;99614.16;;;10.09
70668;BMP280;58242;51.250;-1.118;2024-03-08T04:54:55;99604.78;;;10.04
70668;BMP280;58242;51.250;-1.118;2024-03-08T04:57:21;99604.66;;;10.00
70668;BMP280;58242;51.250;-1.118;2024-03-08T04:59:46;99608.31;;;9.96
70668;BMP280;58242;51.250;-1.118;2024-03-08T05:02:12;99606.63;;;9.91
70668;BMP280;58242;51.250;-1.118;2024-03-08T05:04:37;99601.97;;;9.89
70668;BMP280;58242;51.250;-1.118;2024-03-08T05:07:03;99596.81;;;9.84
70668;BMP280;58242;51.250;-1.118;2024-03-08T05:09:29;99590.25;;;9.81
70668;BMP280;58242;51.250;-1.118;2024-03-08T05:11:57;99592.81;;;9.78
70668;BMP280;58242;51.250;-1.118;2024-03-08T05:14:25;99590.78;;;9.75
70668;BMP280;58242;51.250;-1.118;2024-03-08T05:16:50;99592.97;;;9.73
70668;BMP280;58242;51.250;-1.118;2024-03-08T05:19:16;99587.50;;;9.70
70668;BMP280;58242;51.250;-1.118;2024-03-08T05:21:51;99599.63;;;9.67
70668;BMP280;58242;51.250;-1.118;2024-03-08T05:24:17;99591.50;;;9.64
70668;BMP280;58242;51.250;-1.118;2024-03-08T05:26:43;99596.38;;;9.62
70668;BMP280;58242;51.250;-1.118;2024-03-08T05:29:08;99587.16;;;9.59
70668;BMP280;58242;51.250;-1.118;2024-03-08T05:31:48;99586.69;;;9.57
70668;BMP280;58242;51.250;-1.118;2024-03-08T05:34:14;99592.38;;;9.56
70668;BMP280;58242;51.250;-1.118;2024-03-08T05:36:41;99578.56;;;9.54
70668;BMP280;58242;51.250;-1.118;2024-03-08T05:39:08;99585.78;;;9.54
70668;BMP280;58242;51.250;-1.118;2024-03-08T05:41:33;99578.44;;;9.51
70668;BMP280;58242;51.250;-1.118;2024-03-08T05:43:59;99579.22;;;9.51
70668;BMP280;58242;51.250;-1.118;2024-03-08T05:46:24;99572.97;;;9.47
70668;BMP280;58242;51.250;-1.118;2024-03-08T05:48:50;99569.09;;;9.45
70668;BMP280;58242;51.250;-1.118;2024-03-08T05:51:16;99570.97;;;9.44
70668;BMP280;58242;51.250;-1.118;2024-03-08T05:53:41;99559.06;;;9.42
70668;BMP280;58242;51.250;-1.118;2024-03-08T05:56:06;99556.72;;;9.40
70668;BMP280;58242;51.250;-1.118;2024-03-08T05:58:31;99551.69;;;9.39
70668;BMP280;58242;51.250;-1.118;2024-03-08T06:00:57;99544.47;;;9.39
70668;BMP280;58242;51.250;-1.118;2024-03-08T06:03:22;99546.72;;;9.38
70668;BMP280;58242;51.250;-1.118;2024-03-08T06:05:48;99535.56;;;9.36
70668;BMP280;58242;51.250;-1.118;2024-03-08T06:08:14;99535.94;;;9.34
70668;BMP280;58242;51.250;-1.118;2024-03-08T06:10:40;99542.34;;;9.33
70668;BMP280;58242;51.250;-1.118;2024-03-08T06:13:05;99540.78;;;9.32
70668;BMP280;58242;51.250;-1.118;2024-03-08T06:15:31;99533.44;;;9.29
70668;BMP280;58242;51.250;-1.118;2024-03-08T06:17:57;99540.66;;;9.29
70668;BMP280;58242;51.250;-1.118;2024-03-08T06:20:22;99540.97;;;9.27
70668;BMP280;58242;51.250;-1.118;2024-03-08T06:22:51;99541.31;;;9.26
70668;BMP280;58242;51.250;-1.118;2024-03-08T06:25:17;99534.13;;;9.26
70668;BMP280;58242;51.250;-1.118;2024-03-08T06:27:42;99534.13;;;9.26
70668;BMP280;58242;51.250;-1.118;2024-03-08T06:30:09;99534.91;;;9.27
70668;BMP280;58242;51.250;-1.118;2024-03-08T06:32:35;99529.88;;;9.25
70668;BMP280;58242;51.250;-1.118;2024-03-08T06:35:04;99523.44;;;9.26
70668;BMP280;58242;51.250;-1.118;2024-03-08T06:37:34;99524.97;;;9.27
70668;BMP280;58242;51.250;-1.118;2024-03-08T06:40:00;99520.66;;;9.23
70668;BMP280;58242;51.250;-1.118;2024-03-08T06:42:29;99522.97;;;9.24
70668;BMP280;58242;51.250;-1.118;2024-03-08T06:44:57;99528.31;;;9.24
70668;BMP280;58242;51.250;-1.118;2024-03-08T06:47:29;99530.19;;;9.24
70668;BMP280;58242;51.250;-1.118;2024-03-08T06:49:54;99543.22;;;9.25
70668;BMP280;58242;51.250;-1.118;2024-03-08T06:52:20;99543.66;;;9.27
70668;BMP280;58242;51.250;-1.118;2024-03-08T06:54:45;99546.00;;;9.29
70668;BMP280;58242;51.250;-1.118;2024-03-08T06:57:11;99540.00;;;9.32
70668;BMP280;58242;51.250;-1.118;2024-03-08T06:59:36;99546.72;;;9.38
70668;BMP280;58242;51.250;-1.118;2024-03-08T07:02:04;99550.41;;;9.45
70668;BMP280;58242;51.250;-1.118;2024-03-08T07:04:29;99550.34;;;9.53
70668;BMP280;58242;51.250;-1.118;2024-03-08T07:06:58;99549.13;;;9.62
70668;BMP280;58242;51.250;-1.118;2024-03-08T07:09:26;99528.81;;;9.70
70668;BMP280;58242;51.250;-1.118;2024-03-08T07:11:52;99534.72;;;9.75
70668;BMP280;58242;51.250;-1.118;2024-03-08T07:14:24;99538.44;;;9.82
70668;BMP280;58242;51.250;-1.118;2024-03-08T07:16:50;99532.22;;;9.90
70668;BMP280;58242;51.250;-1.118;2024-03-08T07:19:16;99534.69;;;9.95
70668;BMP280;58242;51.250;-1.118;2024-03-08T07:21:43;99528.00;;;10.01
70668;BMP280;58242;51.250;-1.118;2024-03-08T07:24:09;99524.78;;;10.07
70668;BMP280;58242;51.250;-1.118;2024-03-08T07:26:49;99523.47;;;10.13
70668;BMP280;58242;51.250;-1.118;2024-03-08T07:29:17;99521.47;;;10.22
70668;BMP280;58242;51.250;-1.118;2024-03-08T07:31:42;99526.69;;;10.30
70668;BMP280;58242;51.250;-1.118;2024-03-08T07:34:21;99524.69;;;10.39
70668;BMP280;58242;51.250;-1.118;2024-03-08T07:36:46;99530.03;;;10.50
70668;BMP280;58242;51.250;-1.118;2024-03-08T07:39:11;99521.56;;;10.60
70668;BMP280;58242;51.250;-1.118;2024-03-08T07:41:38;99513.09;;;10.70
70668;BMP280;58242;51.250;-1.118;2024-03-08T07:44:06;99521.63;;;10.87
70668;BMP280;58242;51.250;-1.118;2024-03-08T07:46:31;99515.69;;;11.05
70668;BMP280;58242;51.250;-1.118;2024-03-08T07:48:59;99523.09;;;11.23
70668;BMP280;58242;51.250;-1.118;2024-03-08T07:51:24;99520.59;;;11.41
70668;BMP280;58242;51.250;-1.118;2024-03-08T07:53:49;99523.31;;;11.56
70668;BMP280;58242;51.250;-1.118;2024-03-08T07:56:15;99524.47;;;11.70
70668;BMP280;58242;51.250;-1.118;2024-03-08T07:58:43;99519.06;;;11.82
70668;BMP280;58242;51.250;-1.118;2024-03-08T08:01:16;99506.19;;;12.02
70668;BMP280;58242;51.250;-1.118;2024-03-08T08:03:41;99505.31;;;12.29
70668;BMP280;58242;51.250;-1.118;2024-03-08T08:06:07;99490.66;;;12.56
70668;BMP280;58242;51.250;-1.118;2024-03-08T08:08:32;99498.94;;;12.82
70668;BMP280;58242;51.250;-1.118;2024-03-08T08:10:58;99485.97;;;13.02
70668;BMP280;58242;51.250;-1.118;2024-03-08T08:13:23;99492.41;;;13.34
70668;BMP280;58242;51.250;-1.118;2024-03-08T08:15:49;99471.56;;;13.68
70668;BMP280;58242;51.250;-1.118;2024-03-08T08:18:14;99472.72;;;14.08
70668;BMP280;58242;51.250;-1.118;2024-03-08T08:20:39;99468.34;;;14.47
70668;BMP280;58242;51.250;-1.118;2024-03-08T08:23:04;99455.81;;;14.83
70668;BMP280;58242;51.250;-1.118;2024-03-08T08:25:31;99465.94;;;15.22
70668;BMP280;58242;51.250;-1.118;2024-03-08T08:27:59;99451.31;;;15.55
70668;BMP280;58242;51.250;-1.118;2024-03-08T08:30:24;99455.50;;;15.88
70668;BMP280;58242;51.250;-1.118;2024-03-08T08:32:50;99441.47;;;16.08
70668;BMP280;58242;51.250;-1.118;2024-03-08T08:35:15;99430.44;;;16.26
70668;BMP280;58242;51.250;-1.118;2024-03-08T08:37:41;99437.59;;;16.54
70668;BMP280;58242;51.250;-1.118;2024-03-08T08:40:07;99437.00;;;16.84
70668;BMP280;58242;51.250;-1.118;2024-03-08T08:42:39;99415.16;;;17.20
70668;BMP280;58242;51.250;-1.118;2024-03-08T08:45:05;99418.75;;;17.51
70668;BMP280;58242;51.250;-1.118;2024-03-08T08:47:36;99415.75;;;17.86
70668;BMP280;58242;51.250;-1.118;2024-03-08T08:50:03;99406.47;;;18.18
70668;BMP280;58242;51.250;-1.118;2024-03-08T08:52:30;99416.88;;;18.47
70668;BMP280;58242;51.250;-1.118;2024-03-08T08:54:56;99404.06;;;18.64
70668;BMP280;58242;51.250;-1.118;2024-03-08T08:57:22;99419.53;;;18.81
70668;BMP280;58242;51.250;-1.118;2024-03-08T08:59:47;99396.97;;;19.07
70668;BMP280;58242;51.250;-1.118;2024-03-08T09:02:13;99396.06;;;19.34
70668;BMP280;58242;51.250;-1.118;2024-03-08T09:04:41;99392.06;;;19.62
70668;BMP280;58242;51.250;-1.118;2024-03-08T09:07:07;99394.97;;;19.88
70668;BMP280;58242;51.250;-1.118;2024-03-08T09:09:32;99381.63;;;20.07
70668;BMP280;58242;51.250;-1.118;2024-03-08T09:11:58;99367.56;;;20.19
70668;BMP280;58242;51.250;-1.118;2024-03-08T09:14:23;99364.75;;;20.29
70668;BMP280;58242;51.250;-1.118;2024-03-08T09:16:51;99372.34;;;20.47
70668;BMP280;58242;51.250;-1.118;2024-03-08T09:19:16;99366.28;;;20.69
70668;BMP280;58242;51.250;-1.118;2024-03-08T09:21:42;99365.13;;;20.99
70668;BMP280;58242;51.250;-1.118;2024-03-08T09:24:07;99357.09;;;21.25
70668;BMP280;58242;51.250;-1.118;2024-03-08T09:26:33;99343.34;;;21.35
70668;BMP280;58242;51.250;-1.118;2024-03-08T09:28:59;99330.28;;;21.49
70668;BMP280;58242;51.250;-1.118;2024-03-08T09:31:24;99334.25;;;21.71
70668;BMP280;58242;51.250;-1.118;2024-03-08T09:33:50;99327.31;;;21.92
70668;BMP280;58242;51.250;-1.118;2024-03-08T09:36:16;99337.06;;;22.12
70668;BMP280;58242;51.250;-1.118;2024-03-08T09:38:42;99327.59;;;22.20
70668;BMP280;58242;51.250;-1.118;2024-03-08T09:41:07;99315.88;;;22.23
70668;BMP280;58242;51.250;-1.118;2024-03-08T09:43:34;99312.72;;;22.24
70668;BMP280;58242;51.250;-1.118;2024-03-08T09:46:00;99312.59;;;22.31
70668;BMP280;58242;51.250;-1.118;2024-03-08T09:48:26;99306.03;;;22.47
70668;BMP280;58242;51.250;-1.118;2024-03-08T09:50:51;99300.28;;;22.64
70668;BMP280;58242;51.250;-1.118;2024-03-08T09:53:17;99290.97;;;22.81
70668;BMP280;58242;51.250;-1.118;2024-03-08T09:55:43;99280.56;;;22.95
70668;BMP280;58242;51.250;-1.118;2024-03-08T09:58:12;99291.84;;;23.13
70668;BMP280;58242;51.250;-1.118;2024-03-08T10:00:55;99279.53;;;23.24
70668;BMP280;58242;51.250;-1.118;2024-03-08T10:03:27;99279.38;;;23.31
70668;BMP280;58242;51.250;-1.118;2024-03-08T10:05:52;99278.53;;;23.33
70668;BMP280;58242;51.250;-1.118;2024-03-08T10:08:21;99272.16;;;23.40
70668;BMP280;58242;51.250;-1.118;2024-03-08T10:10:47;99276.84;;;23.55
70668;BMP280;58242;51.250;-1.118;2024-03-08T10:13:12;99281.53;;;23.70
70668;BMP280;58242;51.250;-1.118;2024-03-08T10:15:39;99267.81;;;23.89
70668;BMP280;58242;51.250;-1.118;2024-03-08T10:18:05;99260.72;;;24.07
70668;BMP280;58242;51.250;-1.118;2024-03-08T10:20:31;99255.53;;;24.24
70668;BMP280;58242;51.250;-1.118;2024-03-08T10:23:00;99261.16;;;24.33
70668;BMP280;58242;51.250;-1.118;2024-03-08T10:25:28;99260.63;;;24.38
70668;BMP280;58242;51.250;-1.118;2024-03-08T10:27:55;99251.03;;;24.46
70668;BMP280;58242;51.250;-1.118;2024-03-08T10:30:20;99249.69;;;24.53
70668;BMP280;58242;51.250;-1.118;2024-03-08T10:32:47;99254.84;;;24.64
70668;BMP280;58242;51.250;-1.118;2024-03-08T10:35:13;99246.22;;;24.77
70668;BMP280;58242;51.250;-1.118;2024-03-08T10:37:46;99245.25;;;24.84
70668;BMP280;58242;51.250;-1.118;2024-03-08T10:40:18;99236.09;;;25.02
70668;BMP280;58242;51.250;-1.118;2024-03-08T10:42:58;99243.66;;;25.22
70668;BMP280;58242;51.250;-1.118;2024-03-08T10:45:37;99238.94;;;25.47
70668;BMP280;58242;51.250;-1.118;2024-03-08T10:48:29;99228.16;;;25.77
70668;BMP280;58242;51.250;-1.118;2024-03-08T10:51:05;99209.53;;;25.96
70668;BMP280;58242;51.250;-1.118;2024-03-08T10:53:30;99202.38;;;25.99
70668;BMP280;58242;51.250;-1.118;2024-03-08T10:55:56;99189.44;;;25.99
70668;BMP280;58242;51.250;-1.118;2024-03-08T10:58:24;99190.41;;;26.05
70668;BMP280;58242;51.250;-1.118;2024-03-08T11:00:52;99200.66;;;26.13
70668;BMP280;58242;51.250;-1.118;2024-03-08T11:06:15;99193.84;;;26.39
70668;BMP280;58242;51.250;-1.118;2024-03-08T11:08:41;99194.59;;;26.51
70668;BMP280;58242;51.250;-1.118;2024-03-08T11:14:03;99180.53;;;27.00
70668;BMP280;58242;51.250;-1.118;2024-03-08T11:19:22;99176.75;;;27.06
70668;BMP280;58242;51.250;-1.118;2024-03-08T11:21:57;99179.97;;;27.05
70668;BMP280;58242;51.250;-1.118;2024-03-08T11:24:23;99168.25;;;27.13
70668;BMP280;58242;51.250;-1.118;2024-03-08T11:26:49;99170.81;;;27.08
70668;BMP280;58242;51.250;-1.118;2024-03-08T11:32:09;99161.16;;;27.42
70668;BMP280;58242;51.250;-1.118;2024-03-08T11:34:42;99157.56;;;27.71
70668;BMP280;58242;51.250;-1.118;2024-03-08T11:37:15;99153.00;;;27.94
70668;BMP280;58242;51.250;-1.118;2024-03-08T11:39:49;99154.53;;;28.04
70668;BMP280;58242;51.250;-1.118;2024-03-08T11:42:15;99149.78;;;28.13
70668;BMP280;58242;51.250;-1.118;2024-03-08T11:44:43;99140.81;;;28.30
70668;BMP280;58242;51.250;-1.118;2024-03-08T11:47:10;99145.03;;;28.40
70668;BMP280;58242;51.250;-1.118;2024-03-08T11:49:36;99149.50;;;28.11
70668;BMP280;58242;51.250;-1.118;2024-03-08T11:52:01;99136.81;;;27.61
70668;BMP280;58242;51.250;-1.118;2024-03-08T11:54:28;99135.56;;;27.36
70668;BMP280;58242;51.250;-1.118;2024-03-08T11:56:56;99138.91;;;27.40
70668;BMP280;58242;51.250;-1.118;2024-03-08T11:59:28;99132.56;;;27.69
70668;BMP280;58242;51.250;-1.118;2024-03-08T12:02:02;99127.06;;;27.86
70668;BMP280;58242;51.250;-1.118;2024-03-08T12:04:28;99126.75;;;27.93
70668;BMP280;58242;51.250;-1.118;2024-03-08T12:06:54;99116.09;;;28.04
70668;BMP280;58242;51.250;-1.118;2024-03-08T12:09:19;99114.53;;;28.03
70668;BMP280;58242;51.250;-1.118;2024-03-08T12:11:48;99113.19;;;28.07
70668;BMP280;58242;51.250;-1.118;2024-03-08T12:14:14;99112.88;;;28.23
70668;BMP280;58242;51.250;-1.118;2024-03-08T12:16:39;99117.72;;;28.45
70668;BMP280;58242;51.250;-1.118;2024-03-08T12:19:05;99115.84;;;28.51
70668;BMP280;58242;51.250;-1.118;2024-03-08T12:21:31;99113.88;;;28.43
70668;BMP280;58242;51.250;-1.118;2024-03-08T12:24:08;99116.34;;;28.32
70668;BMP280;58242;51.250;-1.118;2024-03-08T12:26:36;99097.59;;;28.22
70668;BMP280;58242;51.250;-1.118;2024-03-08T12:29:24;99097.28;;;28.02
70668;BMP280;58242;51.250;-1.118;2024-03-08T12:31:54;99102.31;;;28.13
70668;BMP280;58242;51.250;-1.118;2024-03-08T12:34:20;99087.66;;;28.24
70668;BMP280;58242;51.250;-1.118;2024-03-08T12:36:49;99097.44;;;28.25
70668;BMP280;58242;51.250;-1.118;2024-03-08T12:39:17;99094.38;;;28.23
70668;BMP280;58242;51.250;-1.118;2024-03-08T12:41:47;99089.03;;;28.29
70668;BMP280;58242;51.250;-1.118;2024-03-08T12:44:12;99083.03;;;28.39
70668;BMP280;58242;51.250;-1.118;2024-03-08T12:46:38;99074.44;;;28.54
70668;BMP280;58242;51.250;-1.118;2024-03-08T12:49:09;99076.56;;;28.59
70668;BMP280;58242;51.250;-1.118;2024-03-08T12:51:38;99070.91;;;28.54
70668;BMP280;58242;51.250;-1.118;2024-03-08T12:54:07;99066.81;;;28.49
70668;BMP280;58242;51.250;-1.118;2024-03-08T12:56:33;99053.22;;;28.46
70668;BMP280;58242;51.250;-1.118;2024-03-08T12:59:01;99061.75;;;28.57
70668;BMP280;58242;51.250;-1.118;2024-03-08T13:01:28;99048.22;;;28.76
70668;BMP280;58242;51.250;-1.118;2024-03-08T13:03:53;99056.81;;;29.01
70668;BMP280;58242;51.250;-1.118;2024-03-08T13:06:21;99065.31;;;29.12
70668;BMP280;58242;51.250;-1.118;2024-03-08T13:08:50;99041.97;;;29.21
70668;BMP280;58242;51.250;-1.118;2024-03-08T13:11:16;99038.38;;;29.38
70668;BMP280;58242;51.250;-1.118;2024-03-08T13:13:42;99032.34;;;29.63
70668;BMP280;58242;51.250;-1.118;2024-03-08T13:16:08;99041.00;;;29.70
70668;BMP280;58242;51.250;-1.118;2024-03-08T13:18:37;99025.53;;;29.58
70668;BMP280;58242;51.250;-1.118;2024-03-08T13:21:02;99031.69;;;29.53
70668;BMP280;58242;51.250;-1.118;2024-03-08T13:23:32;99018.00;;;29.59
70668;BMP280;58242;51.250;-1.118;2024-03-08T13:25:58;99013.19;;;29.68
70668;BMP280;58242;51.250;-1.118;2024-03-08T13:28:23;99010.66;;;29.79
70668;BMP280;58242;51.250;-1.118;2024-03-08T13:30:54;98992.31;;;29.90
70668;BMP280;58242;51.250;-1.118;2024-03-08T13:33:23;98996.22;;;29.98
70668;BMP280;58242;51.250;-1.118;2024-03-08T13:35:48;98994.34;;;30.04
70668;BMP280;58242;51.250;-1.118;2024-03-08T13:38:15;98985.56;;;30.05
70668;BMP280;58242;51.250;-1.118;2024-03-08T13:40:40;98979.28;;;30.04
70668;BMP280;58242;51.250;-1.118;2024-03-08T13:43:06;98978.66;;;29.95
70668;BMP280;58242;51.250;-1.118;2024-03-08T13:45:33;98968.09;;;29.80
70668;BMP280;58242;51.250;-1.118;2024-03-08T13:48:03;98970.22;;;29.48
70668;BMP280;58242;51.250;-1.118;2024-03-08T13:50:29;98970.22;;;29.11
70668;BMP280;58242;51.250;-1.118;2024-03-08T13:52:55;98948.78;;;28.69
70668;BMP280;58242;51.250;-1.118;2024-03-08T13:55:21;98952.94;;;28.42
70668;BMP280;58242;51.250;-1.118;2024-03-08T13:57:53;98947.22;;;28.22
70668;BMP280;58242;51.250;-1.118;2024-03-08T14:00:18;98938.69;;;28.12
70668;BMP280;58242;51.250;-1.118;2024-03-08T14:02:47;98932.28;;;28.06
70668;BMP280;58242;51.250;-1.118;2024-03-08T14:05:14;98930.44;;;28.12
70668;BMP280;58242;51.250;-1.118;2024-03-08T14:07:40;98927.84;;;28.17